sensor_id;sensor_type;location;lat;lon;timestamp;P1;durP1;ratioP1;P2;durP2;ratioP2
20695;SDS011;10507;52.754;13.040;2023-04-25T00:00:43;3.93;;;2.50;;
20695;SDS011;10507;52.754;13.040;2023-04-25T00:03:11;4.67;;;2.87;;
20695;SDS011;10507;52.754;13.040;2023-04-25T00:05:40;7.00;;;3.10;;
20695;SDS011;10507;52.754;13.040;2023-04-25T00:08:12;4.30;;;2.73;;
20695;SDS011;10507;52.754;13.040;2023-04-25T00:10:40;7.47;;;3.00;;
20695;SDS011;10507;52.754;13.040;2023-04-25T00:13:11;5.47;;;2.80;;
20695;SDS011;10507;52.754;13.040;2023-04-25T00:15:40;5.40;;;2.90;;
20695;SDS011;10507;52.754;13.040;2023-04-25T00:18:08;6.17;;;2.70;;
20695;SDS011;10507;52.754;13.040;2023-04-25T00:20:39;4.50;;;2.60;;
20695;SDS011;10507;52.754;13.040;2023-04-25T00:23:14;4.97;;;2.57;;
20695;SDS011;10507;52.754;13.040;2023-04-25T00:25:44;6.07;;;2.90;;
20695;SDS011;10507;52.754;13.040;2023-04-25T00:28:12;7.07;;;3.40;;
20695;SDS011;10507;52.754;13.040;2023-04-25T00:30:41;6.57;;;2.53;;
20695;SDS011;10507;52.754;13.040;2023-04-25T00:33:10;4.97;;;3.00;;
20695;SDS011;10507;52.754;13.040;2023-04-25T00:35:38;7.90;;;3.20;;
20695;SDS011;10507;52.754;13.040;2023-04-25T00:38:06;4.97;;;2.70;;
20695;SDS011;10507;52.754;13.040;2023-04-25T00:40:35;5.97;;;2.83;;
20695;SDS011;10507;52.754;13.040;2023-04-25T00:43:10;6.17;;;2.90;;
20695;SDS011;10507;52.754;13.040;2023-04-25T00:45:38;6.03;;;2.73;;
20695;SDS011;10507;52.754;13.040;2023-04-25T00:48:35;6.07;;;2.90;;
20695;SDS011;10507;52.754;13.040;2023-04-25T00:51:04;6.47;;;3.10;;
20695;SDS011;10507;52.754;13.040;2023-04-25T00:53:34;8.03;;;3.10;;
20695;SDS011;10507;52.754;13.040;2023-04-25T00:56:03;8.90;;;3.20;;
20695;SDS011;10507;52.754;13.040;2023-04-25T00:58:36;7.23;;;3.10;;
20695;SDS011;10507;52.754;13.040;2023-04-25T01:01:05;6.97;;;3.40;;
20695;SDS011;10507;52.754;13.040;2023-04-25T01:03:36;6.17;;;3.07;;
20695;SDS011;10507;52.754;13.040;2023-04-25T01:06:24;6.30;;;2.70;;
20695;SDS011;10507;52.754;13.040;2023-04-25T01:08:56;7.57;;;3.10;;
20695;SDS011;10507;52.754;13.040;2023-04-25T01:11:27;7.67;;;2.90;;
20695;SDS011;10507;52.754;13.040;2023-04-25T01:13:57;6.60;;;2.87;;
20695;SDS011;10507;52.754;13.040;2023-04-25T01:16:25;9.40;;;3.10;;
20695;SDS011;10507;52.754;13.040;2023-04-25T01:18:57;6.30;;;3.17;;
20695;SDS011;10507;52.754;13.040;2023-04-25T01:21:27;6.13;;;2.83;;
20695;SDS011;10507;52.754;13.040;2023-04-25T01:23:57;6.57;;;3.17;;
20695;SDS011;10507;52.754;13.040;2023-04-25T01:26:30;7.23;;;3.40;;
20695;SDS011;10507;52.754;13.040;2023-04-25T01:28:58;11.63;;;3.63;;
20695;SDS011;10507;52.754;13.040;2023-04-25T01:31:27;8.40;;;3.83;;
20695;SDS011;10507;52.754;13.040;2023-04-25T01:33:58;6.00;;;2.90;;
20695;SDS011;10507;52.754;13.040;2023-04-25T01:36:28;4.50;;;2.80;;
20695;SDS011;10507;52.754;13.040;2023-04-25T01:38:58;9.27;;;3.77;;
20695;SDS011;10507;52.754;13.040;2023-04-25T01:41:27;8.30;;;3.07;;
20695;SDS011;10507;52.754;13.040;2023-04-25T01:43:57;6.80;;;3.23;;
20695;SDS011;10507;52.754;13.040;2023-04-25T01:46:26;10.10;;;3.33;;
20695;SDS011;10507;52.754;13.040;2023-04-25T01:49:00;7.50;;;3.50;;
20695;SDS011;10507;52.754;13.040;2023-04-25T01:51:31;7.30;;;3.60;;
20695;SDS011;10507;52.754;13.040;2023-04-25T01:54:00;9.37;;;3.10;;
20695;SDS011;10507;52.754;13.040;2023-04-25T01:56:32;8.50;;;3.00;;
20695;SDS011;10507;52.754;13.040;2023-04-25T01:59:04;7.77;;;2.70;;
20695;SDS011;10507;52.754;13.040;2023-04-25T02:01:37;11.10;;;3.13;;
20695;SDS011;10507;52.754;13.040;2023-04-25T02:04:07;12.97;;;4.03;;
20695;SDS011;10507;52.754;13.040;2023-04-25T02:07:03;6.43;;;3.10;;
20695;SDS011;10507;52.754;13.040;2023-04-25T02:09:35;7.30;;;2.80;;
20695;SDS011;10507;52.754;13.040;2023-04-25T02:12:07;9.47;;;3.20;;
20695;SDS011;10507;52.754;13.040;2023-04-25T02:14:37;9.60;;;3.40;;
20695;SDS011;10507;52.754;13.040;2023-04-25T02:17:08;6.77;;;3.13;;
20695;SDS011;10507;52.754;13.040;2023-04-25T02:19:36;5.50;;;3.20;;
20695;SDS011;10507;52.754;13.040;2023-04-25T02:22:06;9.70;;;3.33;;
20695;SDS011;10507;52.754;13.040;2023-04-25T02:24:34;9.73;;;3.93;;
20695;SDS011;10507;52.754;13.040;2023-04-25T02:27:02;8.23;;;3.30;;
20695;SDS011;10507;52.754;13.040;2023-04-25T02:29:30;9.30;;;4.00;;
20695;SDS011;10507;52.754;13.040;2023-04-25T02:31:58;7.67;;;3.30;;
20695;SDS011;10507;52.754;13.040;2023-04-25T02:34:28;8.37;;;3.70;;
20695;SDS011;10507;52.754;13.040;2023-04-25T02:36:59;9.30;;;3.73;;
20695;SDS011;10507;52.754;13.040;2023-04-25T02:39:32;8.23;;;3.53;;
20695;SDS011;10507;52.754;13.040;2023-04-25T02:42:01;6.93;;;3.20;;
20695;SDS011;10507;52.754;13.040;2023-04-25T02:44:30;8.30;;;3.33;;
20695;SDS011;10507;52.754;13.040;2023-04-25T02:46:59;6.80;;;3.10;;
20695;SDS011;10507;52.754;13.040;2023-04-25T02:49:27;7.63;;;3.27;;
20695;SDS011;10507;52.754;13.040;2023-04-25T02:51:56;8.37;;;4.00;;
20695;SDS011;10507;52.754;13.040;2023-04-25T02:54:29;10.03;;;3.70;;
20695;SDS011;10507;52.754;13.040;2023-04-25T02:56:59;8.90;;;3.73;;
20695;SDS011;10507;52.754;13.040;2023-04-25T02:59:29;21.67;;;4.27;;
20695;SDS011;10507;52.754;13.040;2023-04-25T03:01:58;9.10;;;3.20;;
20695;SDS011;10507;52.754;13.040;2023-04-25T03:04:42;8.50;;;3.30;;
20695;SDS011;10507;52.754;13.040;2023-04-25T03:07:10;6.90;;;3.70;;
20695;SDS011;10507;52.754;13.040;2023-04-25T03:09:41;10.73;;;3.50;;
20695;SDS011;10507;52.754;13.040;2023-04-25T03:12:12;9.80;;;3.97;;
20695;SDS011;10507;52.754;13.040;2023-04-25T03:14:41;10.47;;;5.00;;
20695;SDS011;10507;52.754;13.040;2023-04-25T03:17:12;8.67;;;3.83;;
20695;SDS011;10507;52.754;13.040;2023-04-25T03:19:40;8.63;;;4.37;;
20695;SDS011;10507;52.754;13.040;2023-04-25T03:22:08;10.07;;;4.13;;
20695;SDS011;10507;52.754;13.040;2023-04-25T03:24:37;10.50;;;3.60;;
20695;SDS011;10507;52.754;13.040;2023-04-25T03:27:09;9.27;;;3.80;;
20695;SDS011;10507;52.754;13.040;2023-04-25T03:29:50;7.07;;;3.50;;
20695;SDS011;10507;52.754;13.040;2023-04-25T03:32:23;7.33;;;3.53;;
20695;SDS011;10507;52.754;13.040;2023-04-25T03:34:54;8.43;;;4.07;;
20695;SDS011;10507;52.754;13.040;2023-04-25T03:37:24;8.00;;;4.10;;
20695;SDS011;10507;52.754;13.040;2023-04-25T03:39:54;7.73;;;3.53;;
20695;SDS011;10507;52.754;13.040;2023-04-25T03:42:22;9.33;;;3.47;;
20695;SDS011;10507;52.754;13.040;2023-04-25T03:44:52;8.80;;;4.00;;
20695;SDS011;10507;52.754;13.040;2023-04-25T03:47:23;8.40;;;4.00;;
20695;SDS011;10507;52.754;13.040;2023-04-25T03:50:02;10.83;;;4.23;;
20695;SDS011;10507;52.754;13.040;2023-04-25T03:52:40;7.70;;;3.67;;
20695;SDS011;10507;52.754;13.040;2023-04-25T03:55:12;13.67;;;5.23;;
20695;SDS011;10507;52.754;13.040;2023-04-25T03:57:40;7.37;;;4.07;;
20695;SDS011;10507;52.754;13.040;2023-04-25T04:00:15;8.77;;;3.63;;
20695;SDS011;10507;52.754;13.040;2023-04-25T04:02:43;12.47;;;4.07;;
20695;SDS011;10507;52.754;13.040;2023-04-25T04:05:11;7.50;;;3.87;;
20695;SDS011;10507;52.754;13.040;2023-04-25T04:07:41;6.43;;;3.80;;
20695;SDS011;10507;52.754;13.040;2023-04-25T04:10:09;6.33;;;3.27;;
20695;SDS011;10507;52.754;13.040;2023-04-25T04:12:42;8.40;;;3.93;;
20695;SDS011;10507;52.754;13.040;2023-04-25T04:15:12;7.00;;;4.27;;
20695;SDS011;10507;52.754;13.040;2023-04-25T04:17:45;7.37;;;4.10;;
20695;SDS011;10507;52.754;13.040;2023-04-25T04:20:13;10.57;;;4.27;;
20695;SDS011;10507;52.754;13.040;2023-04-25T04:22:41;7.70;;;4.13;;
20695;SDS011;10507;52.754;13.040;2023-04-25T04:25:10;9.90;;;4.17;;
20695;SDS011;10507;52.754;13.040;2023-04-25T04:27:38;7.07;;;3.90;;
20695;SDS011;10507;52.754;13.040;2023-04-25T04:30:07;8.97;;;3.60;;
20695;SDS011;10507;52.754;13.040;2023-04-25T04:32:40;8.43;;;3.57;;
20695;SDS011;10507;52.754;13.040;2023-04-25T04:35:09;8.13;;;3.80;;
20695;SDS011;10507;52.754;13.040;2023-04-25T04:37:44;8.80;;;4.00;;
20695;SDS011;10507;52.754;13.040;2023-04-25T04:40:14;7.17;;;3.80;;
20695;SDS011;10507;52.754;13.040;2023-04-25T04:42:42;5.83;;;3.40;;
20695;SDS011;10507;52.754;13.040;2023-04-25T04:45:16;9.07;;;3.90;;
20695;SDS011;10507;52.754;13.040;2023-04-25T04:47:49;6.03;;;3.50;;
20695;SDS011;10507;52.754;13.040;2023-04-25T04:50:20;9.17;;;4.00;;
20695;SDS011;10507;52.754;13.040;2023-04-25T04:52:48;7.77;;;3.53;;
20695;SDS011;10507;52.754;13.040;2023-04-25T04:55:17;8.40;;;3.87;;
20695;SDS011;10507;52.754;13.040;2023-04-25T04:57:45;9.20;;;3.90;;
20695;SDS011;10507;52.754;13.040;2023-04-25T05:00:13;8.93;;;3.63;;
20695;SDS011;10507;52.754;13.040;2023-04-25T05:02:44;8.23;;;3.70;;
20695;SDS011;10507;52.754;13.040;2023-04-25T05:05:15;9.50;;;4.00;;
20695;SDS011;10507;52.754;13.040;2023-04-25T05:07:47;8.40;;;3.63;;
20695;SDS011;10507;52.754;13.040;2023-04-25T05:10:15;5.87;;;3.80;;
20695;SDS011;10507;52.754;13.040;2023-04-25T05:12:43;10.10;;;4.43;;
20695;SDS011;10507;52.754;13.040;2023-04-25T05:15:12;6.03;;;3.57;;
20695;SDS011;10507;52.754;13.040;2023-04-25T05:17:44;7.43;;;3.50;;
20695;SDS011;10507;52.754;13.040;2023-04-25T05:20:12;10.97;;;4.30;;
20695;SDS011;10507;52.754;13.040;2023-04-25T05:22:47;9.07;;;3.80;;
20695;SDS011;10507;52.754;13.040;2023-04-25T05:25:31;12.80;;;4.17;;
20695;SDS011;10507;52.754;13.040;2023-04-25T05:28:01;10.90;;;4.80;;
20695;SDS011;10507;52.754;13.040;2023-04-25T05:30:31;9.97;;;4.80;;
20695;SDS011;10507;52.754;13.040;2023-04-25T05:32:59;9.30;;;4.33;;
20695;SDS011;10507;52.754;13.040;2023-04-25T05:35:31;9.00;;;4.07;;
20695;SDS011;10507;52.754;13.040;2023-04-25T05:38:02;9.13;;;4.57;;
20695;SDS011;10507;52.754;13.040;2023-04-25T05:40:33;9.00;;;3.93;;
20695;SDS011;10507;52.754;13.040;2023-04-25T05:43:02;10.23;;;4.40;;
20695;SDS011;10507;52.754;13.040;2023-04-25T05:45:33;12.03;;;4.00;;
20695;SDS011;10507;52.754;13.040;2023-04-25T05:48:01;10.13;;;4.20;;
20695;SDS011;10507;52.754;13.040;2023-04-25T05:50:31;9.00;;;4.20;;
20695;SDS011;10507;52.754;13.040;2023-04-25T05:53:12;6.13;;;3.93;;
20695;SDS011;10507;52.754;13.040;2023-04-25T05:55:40;9.70;;;4.43;;
20695;SDS011;10507;52.754;13.040;2023-04-25T05:58:08;10.53;;;4.30;;
20695;SDS011;10507;52.754;13.040;2023-04-25T06:00:40;10.03;;;5.27;;
20695;SDS011;10507;52.754;13.040;2023-04-25T06:03:12;11.10;;;4.20;;
20695;SDS011;10507;52.754;13.040;2023-04-25T06:05:46;11.57;;;4.60;;
20695;SDS011;10507;52.754;13.040;2023-04-25T06:08:19;8.93;;;4.20;;
20695;SDS011;10507;52.754;13.040;2023-04-25T06:10:47;11.77;;;4.00;;
20695;SDS011;10507;52.754;13.040;2023-04-25T06:13:16;8.30;;;4.30;;
20695;SDS011;10507;52.754;13.040;2023-04-25T06:15:50;12.03;;;4.80;;
20695;SDS011;10507;52.754;13.040;2023-04-25T06:18:21;8.90;;;4.53;;
20695;SDS011;10507;52.754;13.040;2023-04-25T06:20:54;8.87;;;3.87;;
20695;SDS011;10507;52.754;13.040;2023-04-25T06:23:24;9.03;;;4.63;;
20695;SDS011;10507;52.754;13.040;2023-04-25T06:25:59;10.37;;;4.60;;
20695;SDS011;10507;52.754;13.040;2023-04-25T06:28:28;9.13;;;4.67;;
20695;SDS011;10507;52.754;13.040;2023-04-25T06:31:00;8.20;;;4.13;;
20695;SDS011;10507;52.754;13.040;2023-04-25T06:33:28;10.33;;;4.60;;
20695;SDS011;10507;52.754;13.040;2023-04-25T06:35:58;12.17;;;4.83;;
20695;SDS011;10507;52.754;13.040;2023-04-25T06:38:26;13.70;;;4.50;;
20695;SDS011;10507;52.754;13.040;2023-04-25T06:40:55;10.83;;;3.90;;
20695;SDS011;10507;52.754;13.040;2023-04-25T06:43:24;16.83;;;5.00;;
20695;SDS011;10507;52.754;13.040;2023-04-25T06:45:59;9.67;;;4.07;;
20695;SDS011;10507;52.754;13.040;2023-04-25T06:48:27;15.27;;;4.20;;
20695;SDS011;10507;52.754;13.040;2023-04-25T06:50:55;11.00;;;3.87;;
20695;SDS011;10507;52.754;13.040;2023-04-25T06:53:26;8.20;;;3.40;;
20695;SDS011;10507;52.754;13.040;2023-04-25T06:55:54;11.73;;;4.00;;
20695;SDS011;10507;52.754;13.040;2023-04-25T06:58:26;12.20;;;4.17;;
20695;SDS011;10507;52.754;13.040;2023-04-25T07:00:57;12.40;;;4.63;;
20695;SDS011;10507;52.754;13.040;2023-04-25T07:03:26;13.50;;;4.65;;
20695;SDS011;10507;52.754;13.040;2023-04-25T07:05:54;18.17;;;5.22;;
20695;SDS011;10507;52.754;13.040;2023-04-25T07:08:22;13.07;;;4.23;;
20695;SDS011;10507;52.754;13.040;2023-04-25T07:10:52;14.83;;;4.90;;
20695;SDS011;10507;52.754;13.040;2023-04-25T07:13:23;18.43;;;4.70;;
20695;SDS011;10507;52.754;13.040;2023-04-25T07:15:52;14.17;;;4.63;;
20695;SDS011;10507;52.754;13.040;2023-04-25T07:18:26;22.37;;;4.77;;
20695;SDS011;10507;52.754;13.040;2023-04-25T07:20:54;13.90;;;4.30;;
20695;SDS011;10507;52.754;13.040;2023-04-25T07:23:22;20.20;;;3.90;;
20695;SDS011;10507;52.754;13.040;2023-04-25T07:25:53;14.87;;;3.77;;
20695;SDS011;10507;52.754;13.040;2023-04-25T07:28:23;14.13;;;4.23;;
20695;SDS011;10507;52.754;13.040;2023-04-25T07:30:52;18.63;;;3.43;;
20695;SDS011;10507;52.754;13.040;2023-04-25T07:33:20;12.83;;;3.63;;
20695;SDS011;10507;52.754;13.040;2023-04-25T07:35:49;13.57;;;3.57;;
20695;SDS011;10507;52.754;13.040;2023-04-25T07:38:18;15.00;;;3.63;;
20695;SDS011;10507;52.754;13.040;2023-04-25T07:40:53;10.97;;;3.90;;
20695;SDS011;10507;52.754;13.040;2023-04-25T07:43:22;13.43;;;4.17;;
20695;SDS011;10507;52.754;13.040;2023-04-25T07:45:50;14.60;;;5.13;;
20695;SDS011;10507;52.754;13.040;2023-04-25T07:48:18;14.80;;;4.10;;
20695;SDS011;10507;52.754;13.040;2023-04-25T07:50:48;14.30;;;4.10;;
20695;SDS011;10507;52.754;13.040;2023-04-25T07:53:18;20.70;;;5.07;;
20695;SDS011;10507;52.754;13.040;2023-04-25T07:55:50;12.70;;;3.75;;
20695;SDS011;10507;52.754;13.040;2023-04-25T07:58:23;15.00;;;4.57;;
20695;SDS011;10507;52.754;13.040;2023-04-25T08:00:51;15.43;;;3.63;;
20695;SDS011;10507;52.754;13.040;2023-04-25T08:03:19;14.63;;;3.78;;
20695;SDS011;10507;52.754;13.040;2023-04-25T08:05:51;18.10;;;4.18;;
20695;SDS011;10507;52.754;13.040;2023-04-25T08:08:20;13.90;;;4.72;;
20695;SDS011;10507;52.754;13.040;2023-04-25T08:10:48;15.65;;;4.03;;
20695;SDS011;10507;52.754;13.040;2023-04-25T08:13:17;12.32;;;3.80;;
20695;SDS011;10507;52.754;13.040;2023-04-25T08:15:47;12.63;;;4.07;;
20695;SDS011;10507;52.754;13.040;2023-04-25T08:18:18;13.35;;;4.07;;
20695;SDS011;10507;52.754;13.040;2023-04-25T08:20:50;11.25;;;3.60;;
20695;SDS011;10507;52.754;13.040;2023-04-25T08:23:19;16.90;;;3.60;;
20695;SDS011;10507;52.754;13.040;2023-04-25T08:25:47;8.68;;;3.47;;
20695;SDS011;10507;52.754;13.040;2023-04-25T08:28:18;11.73;;;3.75;;
20695;SDS011;10507;52.754;13.040;2023-04-25T08:30:51;12.18;;;3.25;;
20695;SDS011;10507;52.754;13.040;2023-04-25T08:33:20;12.73;;;4.45;;
20695;SDS011;10507;52.754;13.040;2023-04-25T08:35:51;13.25;;;3.72;;
20695;SDS011;10507;52.754;13.040;2023-04-25T08:38:23;12.70;;;2.97;;
20695;SDS011;10507;52.754;13.040;2023-04-25T08:40:53;12.35;;;3.35;;
20695;SDS011;10507;52.754;13.040;2023-04-25T08:43:25;14.27;;;4.10;;
20695;SDS011;10507;52.754;13.040;2023-04-25T08:45:55;7.88;;;2.30;;
20695;SDS011;10507;52.754;13.040;2023-04-25T08:48:28;9.18;;;2.70;;
20695;SDS011;10507;52.754;13.040;2023-04-25T08:50:56;8.48;;;2.50;;
20695;SDS011;10507;52.754;13.040;2023-04-25T08:53:26;9.02;;;2.65;;
20695;SDS011;10507;52.754;13.040;2023-04-25T08:55:55;12.15;;;2.92;;
20695;SDS011;10507;52.754;13.040;2023-04-25T08:58:23;10.52;;;2.60;;
20695;SDS011;10507;52.754;13.040;2023-04-25T09:00:57;7.88;;;2.10;;
20695;SDS011;10507;52.754;13.040;2023-04-25T09:03:35;8.85;;;2.38;;
20695;SDS011;10507;52.754;13.040;2023-04-25T09:06:04;14.70;;;2.97;;
20695;SDS011;10507;52.754;13.040;2023-04-25T09:08:33;10.38;;;2.75;;
20695;SDS011;10507;52.754;13.040;2023-04-25T09:11:03;12.77;;;2.97;;
20695;SDS011;10507;52.754;13.040;2023-04-25T09:13:33;12.25;;;2.20;;
20695;SDS011;10507;52.754;13.040;2023-04-25T09:16:10;6.28;;;2.58;;
20695;SDS011;10507;52.754;13.040;2023-04-25T09:18:44;8.60;;;1.88;;
20695;SDS011;10507;52.754;13.040;2023-04-25T09:21:22;9.50;;;2.30;;
20695;SDS011;10507;52.754;13.040;2023-04-25T09:23:51;7.22;;;2.20;;
20695;SDS011;10507;52.754;13.040;2023-04-25T09:26:20;11.38;;;2.33;;
20695;SDS011;10507;52.754;13.040;2023-04-25T09:28:50;8.20;;;2.50;;
20695;SDS011;10507;52.754;13.040;2023-04-25T09:31:35;9.48;;;2.20;;
20695;SDS011;10507;52.754;13.040;2023-04-25T09:34:06;7.53;;;2.28;;
20695;SDS011;10507;52.754;13.040;2023-04-25T09:36:38;6.72;;;1.98;;
20695;SDS011;10507;52.754;13.040;2023-04-25T09:39:11;10.98;;;1.77;;
20695;SDS011;10507;52.754;13.040;2023-04-25T09:41:46;8.82;;;2.35;;
20695;SDS011;10507;52.754;13.040;2023-04-25T09:44:19;6.63;;;2.20;;
20695;SDS011;10507;52.754;13.040;2023-04-25T09:46:56;6.00;;;1.65;;
20695;SDS011;10507;52.754;13.040;2023-04-25T09:49:27;5.63;;;2.10;;
20695;SDS011;10507;52.754;13.040;2023-04-25T09:51:58;5.20;;;1.75;;
20695;SDS011;10507;52.754;13.040;2023-04-25T09:54:27;7.47;;;1.80;;
20695;SDS011;10507;52.754;13.040;2023-04-25T09:57:02;8.68;;;2.45;;
20695;SDS011;10507;52.754;13.040;2023-04-25T09:59:43;8.10;;;1.90;;
20695;SDS011;10507;52.754;13.040;2023-04-25T10:02:15;6.80;;;1.98;;
20695;SDS011;10507;52.754;13.040;2023-04-25T10:04:48;6.25;;;2.28;;
20695;SDS011;10507;52.754;13.040;2023-04-25T10:07:29;9.60;;;1.92;;
20695;SDS011;10507;52.754;13.040;2023-04-25T10:10:02;11.07;;;2.38;;
20695;SDS011;10507;52.754;13.040;2023-04-25T10:12:32;9.57;;;2.33;;
20695;SDS011;10507;52.754;13.040;2023-04-25T10:15:04;8.57;;;2.28;;
20695;SDS011;10507;52.754;13.040;2023-04-25T10:17:45;4.53;;;1.65;;
20695;SDS011;10507;52.754;13.040;2023-04-25T10:20:14;9.02;;;2.42;;
20695;SDS011;10507;52.754;13.040;2023-04-25T10:22:45;13.35;;;2.92;;
20695;SDS011;10507;52.754;13.040;2023-04-25T10:25:23;7.25;;;1.58;;
20695;SDS011;10507;52.754;13.040;2023-04-25T10:27:52;5.63;;;1.70;;
20695;SDS011;10507;52.754;13.040;2023-04-25T10:30:22;5.78;;;1.40;;
20695;SDS011;10507;52.754;13.040;2023-04-25T10:32:53;8.65;;;1.60;;
20695;SDS011;10507;52.754;13.040;2023-04-25T10:35:24;4.35;;;1.52;;
20695;SDS011;10507;52.754;13.040;2023-04-25T10:37:58;8.60;;;1.70;;
20695;SDS011;10507;52.754;13.040;2023-04-25T10:40:36;7.80;;;1.90;;
20695;SDS011;10507;52.754;13.040;2023-04-25T10:46:18;6.82;;;1.88;;
20695;SDS011;10507;52.754;13.040;2023-04-25T10:48:53;5.45;;;2.03;;
20695;SDS011;10507;52.754;13.040;2023-04-25T10:51:25;7.35;;;2.38;;
20695;SDS011;10507;52.754;13.040;2023-04-25T10:54:09;8.32;;;1.88;;
20695;SDS011;10507;52.754;13.040;2023-04-25T10:56:38;5.85;;;1.60;;
20695;SDS011;10507;52.754;13.040;2023-04-25T10:59:11;7.68;;;2.00;;
20695;SDS011;10507;52.754;13.040;2023-04-25T11:01:46;8.27;;;2.00;;
20695;SDS011;10507;52.754;13.040;2023-04-25T11:04:21;9.27;;;2.30;;
20695;SDS011;10507;52.754;13.040;2023-04-25T11:06:57;7.55;;;2.63;;
20695;SDS011;10507;52.754;13.040;2023-04-25T11:09:40;6.13;;;1.75;;
20695;SDS011;10507;52.754;13.040;2023-04-25T11:12:10;10.73;;;2.30;;
20695;SDS011;10507;52.754;13.040;2023-04-25T11:14:42;6.38;;;1.75;;
20695;SDS011;10507;52.754;13.040;2023-04-25T11:17:14;7.80;;;2.03;;
20695;SDS011;10507;52.754;13.040;2023-04-25T11:19:56;6.03;;;1.98;;
20695;SDS011;10507;52.754;13.040;2023-04-25T11:22:32;5.95;;;1.77;;
20695;SDS011;10507;52.754;13.040;2023-04-25T11:25:07;5.65;;;1.95;;
20695;SDS011;10507;52.754;13.040;2023-04-25T11:27:49;6.95;;;1.85;;
20695;SDS011;10507;52.754;13.040;2023-04-25T11:30:19;8.10;;;2.25;;
20695;SDS011;10507;52.754;13.040;2023-04-25T11:32:51;7.38;;;1.80;;
20695;SDS011;10507;52.754;13.040;2023-04-25T11:35:26;8.48;;;1.60;;
20695;SDS011;10507;52.754;13.040;2023-04-25T11:37:59;8.52;;;2.13;;
20695;SDS011;10507;52.754;13.040;2023-04-25T11:40:30;12.15;;;1.92;;
20695;SDS011;10507;52.754;13.040;2023-04-25T11:42:59;10.70;;;2.15;;
20695;SDS011;10507;52.754;13.040;2023-04-25T11:45:28;5.25;;;1.65;;
20695;SDS011;10507;52.754;13.040;2023-04-25T11:47:59;8.30;;;2.28;;
20695;SDS011;10507;52.754;13.040;2023-04-25T11:50:31;10.88;;;2.33;;
20695;SDS011;10507;52.754;13.040;2023-04-25T11:53:02;7.63;;;2.13;;
20695;SDS011;10507;52.754;13.040;2023-04-25T11:55:30;4.45;;;1.77;;
20695;SDS011;10507;52.754;13.040;2023-04-25T11:58:20;5.20;;;2.08;;
20695;SDS011;10507;52.754;13.040;2023-04-25T12:00:58;5.85;;;1.80;;
20695;SDS011;10507;52.754;13.040;2023-04-25T12:03:29;8.13;;;2.25;;
20695;SDS011;10507;52.754;13.040;2023-04-25T12:06:03;8.45;;;2.03;;
20695;SDS011;10507;52.754;13.040;2023-04-25T12:08:58;7.78;;;2.17;;
20695;SDS011;10507;52.754;13.040;2023-04-25T12:11:32;9.82;;;2.38;;
20695;SDS011;10507;52.754;13.040;2023-04-25T12:14:06;11.25;;;2.13;;
20695;SDS011;10507;52.754;13.040;2023-04-25T12:16:41;8.50;;;2.25;;
20695;SDS011;10507;52.754;13.040;2023-04-25T12:19:13;11.30;;;2.65;;
20695;SDS011;10507;52.754;13.040;2023-04-25T12:21:47;8.38;;;2.25;;
20695;SDS011;10507;52.754;13.040;2023-04-25T12:24:24;9.32;;;2.65;;
20695;SDS011;10507;52.754;13.040;2023-04-25T12:27:01;7.85;;;1.85;;
20695;SDS011;10507;52.754;13.040;2023-04-25T12:29:35;5.68;;;2.08;;
20695;SDS011;10507;52.754;13.040;2023-04-25T12:32:15;6.57;;;1.80;;
20695;SDS011;10507;52.754;13.040;2023-04-25T12:34:44;6.78;;;2.30;;
20695;SDS011;10507;52.754;13.040;2023-04-25T12:37:14;6.45;;;1.98;;
20695;SDS011;10507;52.754;13.040;2023-04-25T12:39:43;8.98;;;2.22;;
20695;SDS011;10507;52.754;13.040;2023-04-25T12:42:13;8.27;;;2.05;;
20695;SDS011;10507;52.754;13.040;2023-04-25T12:44:41;6.65;;;2.00;;
20695;SDS011;10507;52.754;13.040;2023-04-25T12:47:11;7.45;;;2.33;;
20695;SDS011;10507;52.754;13.040;2023-04-25T12:49:39;7.65;;;1.92;;
20695;SDS011;10507;52.754;13.040;2023-04-25T12:52:09;7.38;;;2.38;;
20695;SDS011;10507;52.754;13.040;2023-04-25T12:54:42;3.38;;;1.30;;
20695;SDS011;10507;52.754;13.040;2023-04-25T12:57:14;4.40;;;1.48;;
20695;SDS011;10507;52.754;13.040;2023-04-25T12:59:42;8.52;;;1.70;;
20695;SDS011;10507;52.754;13.040;2023-04-25T13:02:11;5.90;;;1.67;;
20695;SDS011;10507;52.754;13.040;2023-04-25T13:04:43;3.28;;;1.25;;
20695;SDS011;10507;52.754;13.040;2023-04-25T13:07:15;10.13;;;1.90;;
20695;SDS011;10507;52.754;13.040;2023-04-25T13:09:46;10.15;;;1.95;;
20695;SDS011;10507;52.754;13.040;2023-04-25T13:12:15;10.95;;;1.88;;
20695;SDS011;10507;52.754;13.040;2023-04-25T13:14:44;6.00;;;1.67;;
20695;SDS011;10507;52.754;13.040;2023-04-25T13:17:15;6.95;;;1.60;;
20695;SDS011;10507;52.754;13.040;2023-04-25T13:19:43;7.80;;;1.80;;
20695;SDS011;10507;52.754;13.040;2023-04-25T13:22:24;7.45;;;1.90;;
20695;SDS011;10507;52.754;13.040;2023-04-25T13:24:58;10.55;;;1.92;;
20695;SDS011;10507;52.754;13.040;2023-04-25T13:27:36;8.50;;;2.47;;
20695;SDS011;10507;52.754;13.040;2023-04-25T13:30:10;9.60;;;2.65;;
20695;SDS011;10507;52.754;13.040;2023-04-25T13:32:38;6.60;;;1.80;;
20695;SDS011;10507;52.754;13.040;2023-04-25T13:35:08;5.20;;;1.35;;
20695;SDS011;10507;52.754;13.040;2023-04-25T13:37:45;4.65;;;1.48;;
20695;SDS011;10507;52.754;13.040;2023-04-25T13:40:20;7.80;;;1.80;;
20695;SDS011;10507;52.754;13.040;2023-04-25T13:42:53;8.07;;;1.60;;
20695;SDS011;10507;52.754;13.040;2023-04-25T13:45:27;5.78;;;1.65;;
20695;SDS011;10507;52.754;13.040;2023-04-25T13:47:59;7.45;;;1.58;;
20695;SDS011;10507;52.754;13.040;2023-04-25T13:50:27;7.22;;;2.00;;
20695;SDS011;10507;52.754;13.040;2023-04-25T13:52:56;9.52;;;1.80;;
20695;SDS011;10507;52.754;13.040;2023-04-25T13:55:26;6.68;;;1.42;;
20695;SDS011;10507;52.754;13.040;2023-04-25T13:57:54;5.55;;;1.70;;
20695;SDS011;10507;52.754;13.040;2023-04-25T14:00:22;7.28;;;1.75;;
20695;SDS011;10507;52.754;13.040;2023-04-25T14:02:51;7.63;;;2.47;;
20695;SDS011;10507;52.754;13.040;2023-04-25T14:05:20;8.55;;;2.05;;
20695;SDS011;10507;52.754;13.040;2023-04-25T14:07:51;6.70;;;1.85;;
20695;SDS011;10507;52.754;13.040;2023-04-25T14:10:29;8.02;;;1.75;;
20695;SDS011;10507;52.754;13.040;2023-04-25T14:12:59;10.10;;;2.33;;
20695;SDS011;10507;52.754;13.040;2023-04-25T14:15:35;5.72;;;2.08;;
20695;SDS011;10507;52.754;13.040;2023-04-25T14:18:03;7.00;;;1.65;;
20695;SDS011;10507;52.754;13.040;2023-04-25T14:20:34;5.13;;;1.50;;
20695;SDS011;10507;52.754;13.040;2023-04-25T14:23:03;7.45;;;1.83;;
20695;SDS011;10507;52.754;13.040;2023-04-25T14:25:36;4.28;;;1.45;;
20695;SDS011;10507;52.754;13.040;2023-04-25T14:28:12;7.55;;;1.40;;
20695;SDS011;10507;52.754;13.040;2023-04-25T14:30:55;6.07;;;1.50;;
20695;SDS011;10507;52.754;13.040;2023-04-25T14:33:34;7.07;;;1.65;;
20695;SDS011;10507;52.754;13.040;2023-04-25T14:36:12;5.13;;;1.20;;
20695;SDS011;10507;52.754;13.040;2023-04-25T14:38:40;5.37;;;1.50;;
20695;SDS011;10507;52.754;13.040;2023-04-25T14:41:12;6.83;;;1.30;;
20695;SDS011;10507;52.754;13.040;2023-04-25T14:43:49;4.37;;;0.97;;
20695;SDS011;10507;52.754;13.040;2023-04-25T14:46:22;5.60;;;1.20;;
20695;SDS011;10507;52.754;13.040;2023-04-25T14:48:56;4.20;;;0.95;;
20695;SDS011;10507;52.754;13.040;2023-04-25T14:51:35;5.75;;;1.70;;
20695;SDS011;10507;52.754;13.040;2023-04-25T14:54:05;3.05;;;0.90;;
20695;SDS011;10507;52.754;13.040;2023-04-25T14:56:37;8.95;;;1.17;;
20695;SDS011;10507;52.754;13.040;2023-04-25T14:59:10;5.75;;;0.80;;